createdAt,value
2018-12-26T00:00:29.765Z,98682.94
2018-12-26T00:05:49.794Z,98675.09
2018-12-26T00:11:11.197Z,98681.36
2018-12-26T00:16:30.670Z,98671.26
2018-12-26T00:21:50.143Z,98667.54
2018-12-26T00:27:10.405Z,98672.65
2018-12-26T00:32:30.305Z,98675.95
2018-12-26T00:37:50.572Z,98678.69
2018-12-26T00:43:11.301Z,98677.80
2018-12-26T00:48:30.773Z,98689.03
2018-12-26T00:53:53.023Z,98681.84
2018-12-26T00:59:14.531Z,98685.34
2018-12-26T01:04:35.955Z,98669.38
2018-12-26T01:09:55.289Z,98664.80
2018-12-26T01:15:16.237Z,98677.00
2018-12-26T01:20:35.284Z,98682.48
2018-12-26T01:25:55.809Z,98693.53
2018-12-26T01:31:15.685Z,98685.19
2018-12-26T01:36:35.111Z,98690.08
2018-12-26T01:41:54.679Z,98683.12
2018-12-26T01:47:14.497Z,98689.87
2018-12-26T01:52:34.228Z,98696.64
2018-12-26T01:57:53.656Z,98680.94
2018-12-26T02:03:13.193Z,98677.90
2018-12-26T02:08:32.279Z,98669.59
2018-12-26T02:13:51.415Z,98668.17
2018-12-26T02:19:10.404Z,98653.06
2018-12-26T02:24:30.194Z,98631.41
2018-12-26T02:29:49.911Z,98629.83
2018-12-26T02:35:09.728Z,98639.64
2018-12-26T02:40:29.428Z,98637.23
2018-12-26T02:45:48.437Z,98619.02
2018-12-26T02:51:07.638Z,98596.78
2018-12-26T02:56:28.398Z,98605.09
2018-12-26T03:01:47.470Z,98605.28
2018-12-26T03:07:07.134Z,98597.63
2018-12-26T03:12:26.903Z,98581.20
2018-12-26T03:17:46.135Z,98597.06
2018-12-26T03:23:05.351Z,98590.05
2018-12-26T03:28:25.131Z,98589.05
2018-12-26T03:33:44.747Z,98584.17
2018-12-26T03:39:07.146Z,98591.87
2018-12-26T03:44:27.759Z,98590.62
2018-12-26T03:49:47.558Z,98594.93
2018-12-26T03:55:07.552Z,98592.98
2018-12-26T04:00:27.705Z,98573.28
2018-12-26T04:05:48.014Z,98576.13
2018-12-26T04:11:06.922Z,98563.37
2018-12-26T04:16:26.304Z,98564.91
2018-12-26T04:21:45.902Z,98571.67
2018-12-26T04:27:05.351Z,98563.84
2018-12-26T04:32:24.610Z,98541.58
2018-12-26T04:37:44.120Z,98544.77
2018-12-26T04:43:04.269Z,98551.94
2018-12-26T04:48:23.998Z,98571.01
2018-12-26T04:53:43.329Z,98587.78
2018-12-26T04:59:03.577Z,98570.55
2018-12-26T05:04:23.573Z,98577.31
2018-12-26T05:09:43.163Z,98562.04
2018-12-26T05:15:03.096Z,98569.16
2018-12-26T05:20:22.645Z,98580.23
2018-12-26T05:25:42.585Z,98587.11
2018-12-26T05:31:02.833Z,98579.59
2018-12-26T05:36:21.597Z,98592.44
2018-12-26T05:41:41.192Z,98604.24
2018-12-26T05:47:01.752Z,98597.24
2018-12-26T05:52:21.710Z,98595.67
2018-12-26T05:57:43.305Z,98602.84
2018-12-26T06:03:03.000Z,98598.09
2018-12-26T06:08:23.674Z,98573.53
2018-12-26T06:13:42.919Z,98582.59
2018-12-26T06:19:02.434Z,98561.03
2018-12-26T06:24:22.135Z,98566.73
2018-12-26T06:29:41.398Z,98567.05
2018-12-26T06:35:01.908Z,98557.95
2018-12-26T06:40:22.903Z,98560.42
2018-12-26T06:45:43.509Z,98551.00
2018-12-26T06:51:03.669Z,98551.94
2018-12-26T06:56:22.972Z,98561.58
2018-12-26T07:01:42.496Z,98571.97
2018-12-26T07:07:02.457Z,98582.40
2018-12-26T07:12:21.447Z,98591.67
2018-12-26T07:17:41.731Z,98588.25
2018-12-26T07:23:01.524Z,98601.94
2018-12-26T07:28:21.032Z,98586.34
2018-12-26T07:33:40.708Z,98585.98
2018-12-26T07:39:00.346Z,98590.73
2018-12-26T07:44:21.603Z,98579.32
2018-12-26T07:49:40.842Z,98584.83
2018-12-26T07:55:00.268Z,98585.45
2018-12-26T08:00:19.810Z,98605.17
2018-12-26T08:05:38.780Z,98618.51
2018-12-26T08:10:58.204Z,98599.53
2018-12-26T08:16:17.357Z,98600.33
2018-12-26T08:21:36.846Z,98603.95
2018-12-26T08:26:57.018Z,98594.77
2018-12-26T08:32:16.546Z,98597.56
2018-12-26T08:37:36.031Z,98587.30
2018-12-26T08:42:55.502Z,98585.84
2018-12-26T08:48:14.732Z,98579.59
2018-12-26T08:53:34.294Z,98566.07
2018-12-26T08:58:53.689Z,98578.45
2018-12-26T09:04:13.942Z,98562.59
2018-12-26T09:09:33.884Z,98566.20
2018-12-26T09:14:54.180Z,98575.63
2018-12-26T09:20:13.656Z,98578.94
2018-12-26T09:25:33.911Z,98559.42
2018-12-26T09:30:53.755Z,98560.73
2018-12-26T09:36:13.248Z,98551.59
2018-12-26T09:41:32.694Z,98540.06
2018-12-26T09:46:51.833Z,98539.97
2018-12-26T09:52:11.554Z,98524.72
2018-12-26T09:57:31.475Z,98525.72
2018-12-26T10:02:51.285Z,98512.77
2018-12-26T10:08:11.526Z,98504.00
2018-12-26T10:13:31.774Z,98485.16
2018-12-26T10:18:51.775Z,98456.89
2018-12-26T10:24:11.449Z,98460.25
2018-12-26T10:29:30.514Z,98460.60
2018-12-26T10:34:50.546Z,98462.33
2018-12-26T10:40:10.757Z,98470.80
2018-12-26T10:45:30.346Z,98478.11
2018-12-26T10:50:50.352Z,98467.70
2018-12-26T10:56:10.144Z,98458.13
2018-12-26T11:01:30.009Z,98451.34
2018-12-26T11:06:49.348Z,98429.23
2018-12-26T11:12:09.486Z,98431.24
2018-12-26T11:17:30.138Z,98425.34
2018-12-26T11:22:49.710Z,98399.77
2018-12-26T11:28:09.874Z,98406.84
2018-12-26T11:33:29.428Z,98394.58
2018-12-26T11:38:49.046Z,98399.48
2018-12-26T11:44:08.737Z,98390.52
2018-12-26T11:49:28.440Z,98381.52
2018-12-26T11:54:48.575Z,98381.47
2018-12-26T12:00:07.687Z,98380.95
2018-12-26T12:05:27.563Z,98374.28
2018-12-26T12:10:47.584Z,98387.08
2018-12-26T12:16:07.550Z,98359.39
2018-12-26T12:21:26.621Z,98360.42
2018-12-26T12:26:47.022Z,98357.53
2018-12-26T12:32:06.516Z,98356.86
2018-12-26T12:37:26.932Z,98345.94
2018-12-26T12:42:47.163Z,98361.94
2018-12-26T12:48:07.069Z,98354.41
2018-12-26T12:53:26.732Z,98360.13
2018-12-26T12:58:46.059Z,98357.11
2018-12-26T13:04:05.986Z,98361.53
2018-12-26T13:09:26.266Z,98350.50
2018-12-26T13:14:46.253Z,98373.95
2018-12-26T13:20:08.416Z,98372.70
2018-12-26T13:25:27.431Z,98397.03
2018-12-26T13:30:47.636Z,98400.86
2018-12-26T13:36:06.956Z,98404.58
2018-12-26T13:41:26.571Z,98413.71
2018-12-26T13:46:46.876Z,98407.43
2018-12-26T13:52:06.794Z,98415.53
2018-12-26T13:57:27.000Z,98417.73
2018-12-26T14:02:46.490Z,98411.12
2018-12-26T14:08:07.101Z,98402.90
2018-12-26T14:13:27.799Z,98414.38
2018-12-26T14:18:48.378Z,98422.11
2018-12-26T14:24:07.594Z,98419.98
2018-12-26T14:29:27.320Z,98429.75
2018-12-26T14:34:47.193Z,98427.80
2018-12-26T14:40:06.268Z,98440.73
2018-12-26T14:45:25.953Z,98441.14
2018-12-26T14:50:45.294Z,98441.27
2018-12-26T14:56:04.827Z,98447.33
2018-12-26T15:01:24.126Z,98457.59
2018-12-26T15:06:43.809Z,98460.23
2018-12-26T15:12:03.061Z,98468.41
2018-12-26T15:17:23.459Z,98473.91
2018-12-26T15:22:43.017Z,98461.78
2018-12-26T15:28:03.600Z,98471.09
2018-12-26T15:33:23.082Z,98481.36
2018-12-26T15:38:43.548Z,98471.95
2018-12-26T15:44:02.551Z,98476.21
2018-12-26T15:49:23.306Z,98479.76
2018-12-26T15:54:42.897Z,98482.98
2018-12-26T16:00:02.714Z,98486.22
2018-12-26T16:05:22.396Z,98488.41
2018-12-26T16:10:42.480Z,98486.20
2018-12-26T16:16:02.021Z,98486.69
2018-12-26T16:21:22.428Z,98496.61
2018-12-26T16:26:42.056Z,98490.78
2018-12-26T16:32:01.425Z,98504.27
2018-12-26T16:37:21.567Z,98515.63
2018-12-26T16:42:42.684Z,98535.34
2018-12-26T16:48:01.980Z,98522.20
2018-12-26T16:53:21.471Z,98537.22
2018-12-26T16:58:46.359Z,98544.22
2018-12-26T17:04:06.639Z,98535.09
2018-12-26T17:09:25.875Z,98523.95
2018-12-26T17:14:45.841Z,98544.20
2018-12-26T17:20:06.076Z,98542.23
2018-12-26T17:25:25.959Z,98530.66
2018-12-26T17:30:45.695Z,98532.88
2018-12-26T17:36:05.430Z,98544.09
2018-12-26T17:41:34.281Z,98550.59
2018-12-26T17:47:01.648Z,98541.70
2018-12-26T17:52:22.551Z,98545.16
2018-12-26T17:57:46.314Z,98555.02
2018-12-26T18:03:06.224Z,98551.80
2018-12-26T18:08:26.168Z,98543.03
2018-12-26T18:13:46.001Z,98542.30
2018-12-26T18:19:07.024Z,98548.16
2018-12-26T18:24:26.686Z,98538.19
2018-12-26T18:29:51.906Z,98529.62
2018-12-26T18:35:11.209Z,98519.40
2018-12-26T18:40:31.123Z,98522.48
2018-12-26T18:45:54.450Z,98516.24
2018-12-26T18:51:13.888Z,98512.48
2018-12-26T18:56:34.668Z,98512.48
2018-12-26T19:01:53.978Z,98510.99
2018-12-26T19:07:13.786Z,98497.47
2018-12-26T19:12:33.903Z,98507.22
2018-12-26T19:18:14.230Z,98499.97
2018-12-26T19:23:34.177Z,98499.64
2018-12-26T19:28:54.925Z,98493.80
2018-12-26T19:34:16.799Z,98508.10
2018-12-26T19:39:36.646Z,98488.39
2018-12-26T19:44:56.777Z,98504.64
2018-12-26T19:50:17.794Z,98501.93
2018-12-26T19:55:39.278Z,98503.58
2018-12-26T20:01:00.198Z,98523.17
2018-12-26T20:06:22.531Z,98522.39
2018-12-26T20:11:42.833Z,98528.64
2018-12-26T20:17:02.672Z,98522.39
2018-12-26T20:22:23.134Z,98513.42
2018-12-26T20:27:43.945Z,98504.03
2018-12-26T20:33:03.926Z,98493.17
2018-12-26T20:38:25.510Z,98492.20
2018-12-26T20:43:45.649Z,98481.21
2018-12-26T20:49:06.053Z,98476.38
2018-12-26T20:54:25.967Z,98462.37
2018-12-26T20:59:45.893Z,98446.98
2018-12-26T21:05:05.826Z,98476.14
2018-12-26T21:10:25.567Z,98471.80
2018-12-26T21:15:45.455Z,98458.64
2018-12-26T21:21:05.186Z,98469.09
2018-12-26T21:26:27.163Z,98467.84
2018-12-26T21:31:47.438Z,98467.61
2018-12-26T21:37:07.550Z,98462.26
2018-12-26T21:42:30.733Z,98474.03
2018-12-26T21:47:51.333Z,98454.22
2018-12-26T21:53:11.376Z,98451.88
2018-12-26T21:58:32.592Z,98448.67
2018-12-26T22:03:53.738Z,98453.04
2018-12-26T22:09:13.272Z,98462.49
2018-12-26T22:14:32.981Z,98452.69
2018-12-26T22:19:57.237Z,98462.85
2018-12-26T22:25:17.174Z,98464.49
2018-12-26T22:30:37.391Z,98461.17
2018-12-26T22:35:57.516Z,98455.98
2018-12-26T22:41:16.686Z,98448.44
2018-12-26T22:46:36.362Z,98436.30
2018-12-26T22:51:55.395Z,98448.27
2018-12-26T22:57:15.213Z,98444.58
2018-12-26T23:02:38.811Z,98436.83
2018-12-26T23:07:53.776Z,98445.27
2018-12-26T23:13:14.597Z,98443.63
2018-12-26T23:18:33.548Z,98433.30
2018-12-26T23:23:53.848Z,98437.02
2018-12-26T23:29:13.774Z,98437.00
2018-12-26T23:34:33.332Z,98422.92
2018-12-26T23:39:52.507Z,98435.31
2018-12-26T23:45:11.789Z,98424.16
2018-12-26T23:50:32.190Z,98433.66
2018-12-26T23:55:51.124Z,98435.30
